Time;durP1;ratioP1;P1;durP2;ratioP2;P2;SDS_P1;SDS_P2;PMS_P1;PMS_P2;Temp;Humidity;BMP_temperature;BMP_pressure;BME280_temperature;BME280_humidity;BME280_pressure;Samples;Min_cycle;Max_cycle;Signal;HPM_P1;HPM_P2
2024/02/08 00:00:01;;;;;;;;;;;;;;;;;;5049624;28;19960;-71
2024/02/08 00:02:28;;;;;;;;;;;;;;;;;;5048646;28;20392;-71
2024/02/08 00:04:55;;;;;;;;;;;;;;;;;;5049722;28;19984;-71
2024/02/08 00:07:22;;;;;;;;;;;;;;;;;;5046160;28;19935;-71
2024/02/08 00:09:50;;;;;;;;;;;;;;;;;;5049260;28;20391;-71
2024/02/08 00:12:19;;;;;;;;;;;;;;;;;;5048766;28;20394;-71
2024/02/08 00:14:48;;;;;;;;;;;;;;;;;;5049399;28;20031;-70
2024/02/08 00:17:15;;;;;;;;;;;;;;;;;;5049162;28;19929;-70
2024/02/08 00:19:42;;;;;;;;;;;;;;;;;;5045410;28;19956;-70
2024/02/08 00:22:09;;;;;;;;;;;;;;;;;;5043745;28;20402;-71
2024/02/08 00:24:36;;;;;;;;;;;;;;;;;;5048071;28;19929;-71
2024/02/08 00:27:04;;;;;;;;;;;;;;;;;;5048407;28;19935;-72
2024/02/08 00:29:31;;;;;;;;;;;;;;;;;;5048713;28;20578;-70
2024/02/08 00:31:59;;;;;;;;;;;;;;;;;;5048071;28;19928;-69
2024/02/08 00:34:26;;;;;;;;;;;;;;;;;;5049013;28;19929;-70
2024/02/08 00:36:53;;;;;;;;;;;;;;;;;;5048287;28;19928;-70
2024/02/08 00:39:20;;;;;;;;;;;;;;;;;;5048974;28;20016;-71
2024/02/08 00:41:47;;;;;;;;;;;;;;;;;;5047732;28;19928;-71
2024/02/08 00:44:14;;;;;;;;;;;;;;;;;;5048974;28;19935;-71
2024/02/08 00:46:41;;;;;;;;;;;;;;;;;;5048351;28;20047;-70
2024/02/08 00:49:09;;;;;;;;;;;;;;;;;;5048481;28;19928;-70
2024/02/08 00:51:36;;;;;;;;;;;;;;;;;;5050926;28;19937;-71
2024/02/08 00:54:03;;;;;;;;;;;;;;;;;;5053061;28;20044;-72
2024/02/08 00:56:30;;;;;;;;;;;;;;;;;;5052903;28;19948;-71
2024/02/08 00:58:57;;;;;;;;;;;;;;;;;;5062333;28;19929;-71
2024/02/08 01:01:24;;;;;;;;;;;;;;;;;;5041412;28;19936;-70
2024/02/08 01:03:51;;;;;;;;;;;;;;;;;;5038896;28;20027;-70
2024/02/08 01:06:18;;;;;;;;;;;;;;;;;;5050952;28;19934;-70
2024/02/08 01:08:47;;;;;;;;;;;;;;;;;;5052601;28;19998;-70
2024/02/08 01:11:14;;;;;;;;;;;;;;;;;;5052062;28;19983;-70
2024/02/08 01:13:41;;;;;;;;;;;;;;;;;;5052624;28;19933;-70
2024/02/08 01:16:11;;;;;;;;;;;;;;;;;;5051261;28;20033;-70
2024/02/08 01:18:41;;;;;;;;;;;;;;;;;;5051601;28;20354;-71
2024/02/08 01:21:08;;;;;;;;;;;;;;;;;;5051529;28;19935;-70
2024/02/08 01:23:35;;;;;;;;;;;;;;;;;;5052220;28;19938;-70
2024/02/08 01:26:03;;;;;;;;;;;;;;;;;;5051326;28;20027;-70
2024/02/08 01:28:30;;;;;;;;;;;;;;;;;;5052152;28;20018;-70
2024/02/08 01:30:57;;;;;;;;;;;;;;;;;;5050781;28;19932;-70
2024/02/08 01:33:24;;;;;;;;;;;;;;;;;;5063579;28;20288;-70
2024/02/08 01:35:52;;;;;;;;;;;;;;;;;;5051451;28;20027;-70
2024/02/08 01:38:19;;;;;;;;;;;;;;;;;;5051502;28;19929;-70
2024/02/08 01:40:46;;;;;;;;;;;;;;;;;;5047643;28;19998;-71
2024/02/08 01:43:14;;;;;;;;;;;;;;;;;;5051688;28;20363;-71
2024/02/08 01:45:41;;;;;;;;;;;;;;;;;;5049848;28;19955;-71
2024/02/08 01:48:10;;;;;;;;;;;;;;;;;;5052072;28;19979;-70
2024/02/08 01:50:37;;;;;;;;;;;;;;;;;;5054360;28;19935;-71
2024/02/08 01:53:05;;;;;;;;;;;;;;;;;;5053569;28;19956;-71
2024/02/08 01:55:33;;;;;;;;;;;;;;;;;;5051475;28;19955;-71
2024/02/08 01:58:00;;;;;;;;;;;;;;;;;;5051607;28;19928;-71
2024/02/08 02:00:29;;;;;;;;;;;;;;;;;;5050586;28;19928;-71
2024/02/08 02:02:57;;;;;;;;;;;;;;;;;;5050077;28;19928;-71
2024/02/08 02:05:25;;;;;;;;;;;;;;;;;;5051598;28;19928;-70
2024/02/08 02:07:52;;;;;;;;;;;;;;;;;;5056754;28;19990;-69
2024/02/08 02:10:19;;;;;;;;;;;;;;;;;;5049716;28;19971;-69
2024/02/08 02:12:46;;;;;;;;;;;;;;;;;;5049510;28;19972;-69
2024/02/08 02:15:13;;;;;;;;;;;;;;;;;;5050860;28;19951;-70
2024/02/08 02:17:40;;;;;;;;;;;;;;;;;;5050476;28;19929;-69
2024/02/08 02:20:07;;;;;;;;;;;;;;;;;;5050285;28;19982;-71
2024/02/08 02:22:35;;;;;;;;;;;;;;;;;;5050085;28;19928;-70
2024/02/08 02:25:02;;;;;;;;;;;;;;;;;;5061876;28;20410;-70
2024/02/08 02:27:29;;;;;;;;;;;;;;;;;;5051496;28;19928;-70
2024/02/08 02:29:56;;;;;;;;;;;;;;;;;;5048950;28;20429;-70
2024/02/08 02:32:23;;;;;;;;;;;;;;;;;;5051259;28;19996;-70
2024/02/08 02:34:51;;;;;;;;;;;;;;;;;;5051469;28;19929;-71
2024/02/08 02:37:19;;;;;;;;;;;;;;;;;;5050963;28;19952;-71
2024/02/08 02:39:46;;;;;;;;;;;;;;;;;;5050712;28;19928;-70
2024/02/08 02:42:14;;;;;;;;;;;;;;;;;;5063374;28;20347;-70
2024/02/08 02:44:42;;;;;;;;;;;;;;;;;;5069732;28;19974;-71
2024/02/08 02:47:10;;;;;;;;;;;;;;;;;;5050579;28;19963;-70
2024/02/08 02:49:37;;;;;;;;;;;;;;;;;;5049441;28;19928;-70
2024/02/08 02:52:07;;;;;;;;;;;;;;;;;;5051282;28;19929;-70
2024/02/08 02:54:34;;;;;;;;;;;;;;;;;;5058525;28;19932;-70
2024/02/08 02:57:03;;;;;;;;;;;;;;;;;;5048699;28;19929;-70
2024/02/08 02:59:30;;;;;;;;;;;;;;;;;;5050169;28;20086;-70
2024/02/08 03:01:57;;;;;;;;;;;;;;;;;;5050731;28;19929;-70
2024/02/08 03:04:24;;;;;;;;;;;;;;;;;;5050041;28;19998;-70
2024/02/08 03:06:53;;;;;;;;;;;;;;;;;;5049742;28;19928;-70
2024/02/08 03:09:23;;;;;;;;;;;;;;;;;;5048642;28;20063;-71
2024/02/08 03:11:50;;;;;;;;;;;;;;;;;;5049950;28;20400;-71
2024/02/08 03:14:22;;;;;;;;;;;;;;;;;;5049316;28;19932;-71
2024/02/08 03:16:50;;;;;;;;;;;;;;;;;;5050094;28;20331;-71
2024/02/08 03:19:16;;;;;;;;;;;;;;;;;;5049227;28;20273;-71
2024/02/08 03:21:45;;;;;;;;;;;;;;;;;;5048959;28;20028;-71
2024/02/08 03:24:12;;;;;;;;;;;;;;;;;;5049318;28;19929;-71
2024/02/08 03:26:40;;;;;;;;;;;;;;;;;;5049934;28;19974;-71
2024/02/08 03:29:11;;;;;;;;;;;;;;;;;;5044777;28;20308;-72
2024/02/08 03:31:41;;;;;;;;;;;;;;;;;;5052451;28;20015;-71
2024/02/08 03:34:08;;;;;;;;;;;;;;;;;;5060162;28;19943;-71
2024/02/08 03:36:35;;;;;;;;;;;;;;;;;;5048887;28;19929;-71
2024/02/08 03:39:03;;;;;;;;;;;;;;;;;;5049053;28;20023;-70
2024/02/08 03:41:31;;;;;;;;;;;;;;;;;;5049848;28;20469;-71
2024/02/08 03:44:02;;;;;;;;;;;;;;;;;;5049992;28;20020;-71
2024/02/08 03:46:29;;;;;;;;;;;;;;;;;;5048443;28;20023;-70
2024/02/08 03:48:57;;;;;;;;;;;;;;;;;;5051377;28;19977;-70
2024/02/08 03:51:24;;;;;;;;;;;;;;;;;;5040038;28;19940;-70
2024/02/08 03:53:52;;;;;;;;;;;;;;;;;;5053226;28;19933;-70
2024/02/08 03:56:26;;;;;;;;;;;;;;;;;;5048845;28;19982;-70
2024/02/08 03:58:53;;;;;;;;;;;;;;;;;;5046772;28;19979;-71
2024/02/08 04:01:21;;;;;;;;;;;;;;;;;;5049111;28;19933;-70
2024/02/08 04:03:56;;;;;;;;;;;;;;;;;;5049064;28;19936;-70
2024/02/08 04:06:49;;;;;;;;;;;;;;;;;;5052366;28;20327;-70
2024/02/08 04:09:33;;;;;;;;;;;;;;;;;;5043262;28;20006;-71
2024/02/08 04:53:38;;;;;;;;;;;;;;;;;;4986956;28;20017;-70
2024/02/08 04:56:08;;;;;;;;;;;;;;;;;;5005972;28;19937;-70
2024/02/08 04:58:35;;;;;;;;;;;;;;;;;;5006772;28;19968;-70
2024/02/08 05:01:02;;;;;;;;;;;;;;;;;;5005243;28;19945;-70
2024/02/08 05:03:30;;;;;;;;;;;;;;;;;;5006143;28;19929;-70
2024/02/08 05:05:57;;;;;;;;;;;;;;;;;;5004906;28;19933;-69
2024/02/08 05:08:24;;;;;;;;;;;;;;;;;;5006558;28;20016;-70
2024/02/08 05:10:52;;;;;;;;;;;;;;;;;;5002010;28;19960;-70
2024/02/08 05:13:24;;;;;;;;;;;;;;;;;;5005160;28;20015;-69
2024/02/08 05:15:51;;;;;;;;;;;;;;;;;;5005716;28;19930;-70
2024/02/08 05:18:21;;;;;;;;;;;;;;;;;;5008673;28;20069;-70
2024/02/08 05:20:48;;;;;;;;;;;;;;;;;;5047675;28;19933;-72
2024/02/08 05:23:15;;;;;;;;;;;;;;;;;;5048550;28;20399;-73
2024/02/08 05:25:44;;;;;;;;;;;;;;;;;;5047886;28;19979;-71
2024/02/08 05:28:12;;;;;;;;;;;;;;;;;;5047609;28;19998;-71
2024/02/08 05:30:39;;;;;;;;;;;;;;;;;;5048829;28;21687;-71
2024/02/08 05:33:06;;;;;;;;;;;;;;;;;;5048463;28;20023;-72
2024/02/08 05:35:33;;;;;;;;;;;;;;;;;;5048288;28;19936;-73
2024/02/08 05:38:01;;;;;;;;;;;;;;;;;;5048973;28;20028;-71
2024/02/08 05:40:30;;;;;;;;;;;;;;;;;;5050781;28;19935;-72
2024/02/08 05:42:57;;;;;;;;;;;;;;;;;;5051272;28;19933;-72
2024/02/08 05:45:30;;;;;;;;;;;;;;;;;;5046562;28;19936;-71
2024/02/08 05:48:00;;;;;;;;;;;;;;;;;;5049580;28;19928;-71
2024/02/08 05:50:27;;;;;;;;;;;;;;;;;;5047259;28;19928;-72
2024/02/08 05:52:58;;;;;;;;;;;;;;;;;;5060058;28;19935;-72
2024/02/08 05:55:25;;;;;;;;;;;;;;;;;;5049324;28;19935;-72
2024/02/08 05:57:52;;;;;;;;;;;;;;;;;;5049825;28;19951;-71
2024/02/08 06:00:32;;;;;;;;;;;;;;;;;;5050396;28;19929;-72
2024/02/08 06:03:01;;;;;;;;;;;;;;;;;;5049599;28;19991;-72
2024/02/08 06:05:28;;;;;;;;;;;;;;;;;;5050324;28;19933;-71
2024/02/08 06:07:57;;;;;;;;;;;;;;;;;;5050492;28;19929;-71
2024/02/08 06:10:24;;;;;;;;;;;;;;;;;;5051305;28;20006;-71
2024/02/08 06:12:59;;;;;;;;;;;;;;;;;;5050397;28;19971;-71
2024/02/08 06:15:32;;;;;;;;;;;;;;;;;;5051297;28;20017;-71
2024/02/08 06:18:03;;;;;;;;;;;;;;;;;;5049692;28;19936;-71
2024/02/08 06:20:40;;;;;;;;;;;;;;;;;;5050473;28;20025;-71
2024/02/08 06:23:17;;;;;;;;;;;;;;;;;;5050076;28;20375;-72
2024/02/08 06:25:46;;;;;;;;;;;;;;;;;;5051196;28;20427;-72
2024/02/08 06:28:12;;;;;;;;;;;;;;;;;;5050142;28;19929;-72
2024/02/08 06:30:46;;;;;;;;;;;;;;;;;;5049249;28;19975;-72
2024/02/08 06:33:24;;;;;;;;;;;;;;;;;;5039850;28;20421;-72
2024/02/08 06:35:56;;;;;;;;;;;;;;;;;;5063907;28;19928;-71
2024/02/08 06:38:40;;;;;;;;;;;;;;;;;;5052477;28;19954;-72
2024/02/08 06:41:09;;;;;;;;;;;;;;;;;;5050629;28;19929;-71
2024/02/08 06:43:56;;;;;;;;;;;;;;;;;;5049767;28;20438;-72
2024/02/08 06:46:39;;;;;;;;;;;;;;;;;;5050260;28;20029;-72
2024/02/08 07:38:53;;;;;;;;;;;;;;;;;;5035998;28;20485;-73
2024/02/08 07:41:19;;;;;;;;;;;;;;;;;;5045309;28;19925;-74
2024/02/08 07:43:54;;;;;;;;;;;;;;;;;;5048534;28;19994;-73
2024/02/08 07:46:26;;;;;;;;;;;;;;;;;;5047600;28;20002;-74
2024/02/08 07:48:58;;;;;;;;;;;;;;;;;;5045544;28;19929;-73
2024/02/08 07:51:33;;;;;;;;;;;;;;;;;;5049400;28;20310;-74
2024/02/08 07:54:10;;;;;;;;;;;;;;;;;;5047189;28;19982;-73
2024/02/08 07:56:46;;;;;;;;;;;;;;;;;;5041305;28;20312;-75
2024/02/08 07:59:15;;;;;;;;;;;;;;;;;;5045079;28;20691;-74
2024/02/08 08:01:43;;;;;;;;;;;;;;;;;;5047016;28;19974;-74
2024/02/08 08:04:12;;;;;;;;;;;;;;;;;;5049199;28;19929;-73
2024/02/08 08:06:46;;;;;;;;;;;;;;;;;;5046554;28;19929;-73
2024/02/08 08:09:19;;;;;;;;;;;;;;;;;;5048628;28;19971;-75
2024/02/08 08:11:46;;;;;;;;;;;;;;;;;;5047882;28;19968;-74
2024/02/08 08:14:56;;;;;;;;;;;;;;;;;;5037383;28;20660;-75
2024/02/08 08:17:30;;;;;;;;;;;;;;;;;;5038438;28;20696;-75
2024/02/08 08:20:04;;;;;;;;;;;;;;;;;;5035879;28;19948;-71
2024/02/08 08:25:28;;;;;;;;;;;;;;;;;;5045274;28;19929;-73
2024/02/08 08:28:09;;;;;;;;;;;;;;;;;;5041857;28;20037;-74
2024/02/08 08:30:38;;;;;;;;;;;;;;;;;;5041708;28;19951;-74
2024/02/08 08:33:08;;;;;;;;;;;;;;;;;;5044070;28;20303;-73
2024/02/08 08:35:45;;;;;;;;;;;;;;;;;;5049075;28;19933;-74
2024/02/08 08:38:29;;;;;;;;;;;;;;;;;;5038254;28;20424;-75
2024/02/08 08:41:06;;;;;;;;;;;;;;;;;;5047106;28;19929;-74
2024/02/08 08:43:35;;;;;;;;;;;;;;;;;;5036122;28;20016;-76
2024/02/08 08:46:09;;;;;;;;;;;;;;;;;;5036510;28;19929;-74
2024/02/08 08:48:36;;;;;;;;;;;;;;;;;;5041828;28;19999;-76
2024/02/08 08:51:10;;;;;;;;;;;;;;;;;;5046975;28;19929;-75
2024/02/08 08:53:43;;;;;;;;;;;;;;;;;;5045264;28;19936;-76
2024/02/08 08:56:10;;;;;;;;;;;;;;;;;;5032151;28;20015;-75
2024/02/08 08:58:39;;;;;;;;;;;;;;;;;;5047751;28;20338;-76
2024/02/08 09:01:15;;;;;;;;;;;;;;;;;;5043806;28;19974;-75
2024/02/08 09:03:44;;;;;;;;;;;;;;;;;;5045285;28;20225;-76
2024/02/08 09:06:13;;;;;;;;;;;;;;;;;;5048799;28;19943;-74
2024/02/08 09:08:44;;;;;;;;;;;;;;;;;;5043201;28;19929;-76
2024/02/08 09:11:12;;;;;;;;;;;;;;;;;;5045297;28;20450;-77
2024/02/08 09:13:42;;;;;;;;;;;;;;;;;;5051290;28;19991;-74
2024/02/08 09:19:04;;;;;;;;;;;;;;;;;;5046144;28;19929;-75
2024/02/08 09:21:32;;;;;;;;;;;;;;;;;;5045239;28;19925;-76
2024/02/08 09:24:03;;;;;;;;;;;;;;;;;;5047737;28;19974;-75
2024/02/08 09:26:46;;;;;;;;;;;;;;;;;;5051111;28;19929;-75
2024/02/08 09:29:13;;;;;;;;;;;;;;;;;;5045802;28;19924;-75
2024/02/08 09:31:40;;;;;;;;;;;;;;;;;;5046088;28;20016;-74
2024/02/08 09:34:14;;;;;;;;;;;;;;;;;;5050813;28;19935;-78
2024/02/08 09:36:41;;;;;;;;;;;;;;;;;;5051157;28;19936;-77
2024/02/08 09:39:15;;;;;;;;;;;;;;;;;;5050176;28;20002;-78
2024/02/08 09:41:44;;;;;;;;;;;;;;;;;;5048381;28;19936;-79
2024/02/08 09:44:11;;;;;;;;;;;;;;;;;;5050992;28;19935;-81
2024/02/08 09:46:56;;;;;;;;;;;;;;;;;;5046989;28;19929;-77
2024/02/08 09:49:34;;;;;;;;;;;;;;;;;;5041789;28;19992;-79
2024/02/08 09:52:14;;;;;;;;;;;;;;;;;;5043043;28;19936;-77
2024/02/08 09:54:46;;;;;;;;;;;;;;;;;;5040418;28;19929;-77
2024/02/08 09:57:22;;;;;;;;;;;;;;;;;;5046258;28;20284;-78
2024/02/08 10:00:05;;;;;;;;;;;;;;;;;;5049948;28;19932;-79
2024/02/08 10:02:53;;;;;;;;;;;;;;;;;;5038890;28;19929;-80
2024/02/08 10:05:48;;;;;;;;;;;;;;;;;;5050436;28;19933;-78
2024/02/08 10:08:08;;;;;;;;;;;;;;;;;;5050555;28;20011;-80
2024/02/08 10:10:44;;;;;;;;;;;;;;;;;;5041391;28;19956;-77
2024/02/08 10:13:25;;;;;;;;;;;;;;;;;;5045732;28;20027;-79
2024/02/08 10:15:56;;;;;;;;;;;;;;;;;;5050305;28;20251;-78
2024/02/08 10:18:33;;;;;;;;;;;;;;;;;;5041237;28;19932;-78
2024/02/08 10:21:03;;;;;;;;;;;;;;;;;;5031720;28;20022;-79
2024/02/08 10:23:35;;;;;;;;;;;;;;;;;;5047552;28;19928;-79
2024/02/08 10:28:54;;;;;;;;;;;;;;;;;;5044406;28;20607;-80
2024/02/08 10:31:24;;;;;;;;;;;;;;;;;;5054670;28;19940;-77
2024/02/08 10:33:57;;;;;;;;;;;;;;;;;;5050221;28;19963;-78
2024/02/08 10:36:31;;;;;;;;;;;;;;;;;;5050166;28;19929;-79
2024/02/08 10:39:02;;;;;;;;;;;;;;;;;;5048702;28;19928;-80
2024/02/08 10:41:36;;;;;;;;;;;;;;;;;;5049161;28;19935;-79
2024/02/08 10:44:05;;;;;;;;;;;;;;;;;;5045268;28;20004;-77
2024/02/08 10:46:32;;;;;;;;;;;;;;;;;;5045026;28;20411;-80
2024/02/08 10:48:59;;;;;;;;;;;;;;;;;;5045184;28;20435;-79
2024/02/08 10:51:27;;;;;;;;;;;;;;;;;;5049447;28;20022;-78
2024/02/08 10:54:04;;;;;;;;;;;;;;;;;;5050366;28;19925;-80
2024/02/08 10:56:40;;;;;;;;;;;;;;;;;;5046185;28;20007;-80
2024/02/08 10:59:09;;;;;;;;;;;;;;;;;;5044642;28;19928;-79
2024/02/08 11:02:00;;;;;;;;;;;;;;;;;;5050443;28;20045;-80
2024/02/08 11:04:28;;;;;;;;;;;;;;;;;;5046710;28;19935;-79
2024/02/08 11:07:05;;;;;;;;;;;;;;;;;;5048243;28;20321;-79
2024/02/08 11:09:33;;;;;;;;;;;;;;;;;;5049202;28;19929;-78
2024/02/08 11:12:00;;;;;;;;;;;;;;;;;;5047280;28;19928;-79
2024/02/08 11:14:27;;;;;;;;;;;;;;;;;;5044670;28;19940;-77
2024/02/08 11:16:54;;;;;;;;;;;;;;;;;;5048744;28;19929;-78
2024/02/08 11:19:22;;;;;;;;;;;;;;;;;;5047474;28;19929;-80
2024/02/08 11:21:51;;;;;;;;;;;;;;;;;;5049503;28;19928;-84
2024/02/08 11:24:27;;;;;;;;;;;;;;;;;;5048835;28;19929;-74
2024/02/08 11:26:54;;;;;;;;;;;;;;;;;;5047011;28;19975;-74
2024/02/08 11:29:21;;;;;;;;;;;;;;;;;;5046099;28;19950;-72
2024/02/08 11:31:49;;;;;;;;;;;;;;;;;;5049724;28;20514;-73
2024/02/08 11:34:24;;;;;;;;;;;;;;;;;;5049228;28;19935;-74
2024/02/08 11:36:53;;;;;;;;;;;;;;;;;;5044824;28;19936;-73
2024/02/08 11:39:26;;;;;;;;;;;;;;;;;;5042215;28;20453;-80
2024/02/08 11:41:56;;;;;;;;;;;;;;;;;;5047935;28;20011;-77
2024/02/08 11:44:25;;;;;;;;;;;;;;;;;;5047081;28;19928;-83
2024/02/08 11:46:58;;;;;;;;;;;;;;;;;;5050524;28;19952;-83
2024/02/08 11:49:32;;;;;;;;;;;;;;;;;;5044335;28;19929;-76
2024/02/08 11:52:02;;;;;;;;;;;;;;;;;;5047863;28;19964;-85
2024/02/08 11:54:30;;;;;;;;;;;;;;;;;;5051435;28;19936;-84
2024/02/08 11:56:57;;;;;;;;;;;;;;;;;;5043059;28;19940;-84
2024/02/08 11:59:24;;;;;;;;;;;;;;;;;;5045861;28;19929;-79
2024/02/08 12:01:51;;;;;;;;;;;;;;;;;;5044283;28;19935;-81
2024/02/08 12:04:18;;;;;;;;;;;;;;;;;;5043291;28;20344;-77
2024/02/08 12:06:46;;;;;;;;;;;;;;;;;;5047556;28;20388;-82
2024/02/08 12:09:22;;;;;;;;;;;;;;;;;;5044904;28;19928;-81
2024/02/08 12:11:51;;;;;;;;;;;;;;;;;;5045429;28;20414;-81
2024/02/08 12:14:18;;;;;;;;;;;;;;;;;;5048959;28;20043;-81
2024/02/08 12:16:50;;;;;;;;;;;;;;;;;;5050063;28;20327;-83
2024/02/08 12:19:17;;;;;;;;;;;;;;;;;;5050662;28;20032;-83
2024/02/08 12:21:44;;;;;;;;;;;;;;;;;;5050132;28;19928;-83
2024/02/08 12:24:15;;;;;;;;;;;;;;;;;;5040651;28;20015;-85
2024/02/08 12:26:42;;;;;;;;;;;;;;;;;;5049534;28;19952;-81
2024/02/08 12:29:16;;;;;;;;;;;;;;;;;;5048714;28;20006;-82
2024/02/08 12:31:45;;;;;;;;;;;;;;;;;;5049801;28;20422;-82
2024/02/08 12:34:13;;;;;;;;;;;;;;;;;;5047301;28;19933;-82
2024/02/08 12:36:45;;;;;;;;;;;;;;;;;;5048659;28;19928;-80
2024/02/08 12:39:18;;;;;;;;;;;;;;;;;;5047907;28;19928;-82
2024/02/08 12:41:45;;;;;;;;;;;;;;;;;;5043438;28;19928;-75
2024/02/08 12:44:14;;;;;;;;;;;;;;;;;;5043339;28;20451;-77
2024/02/08 12:46:42;;;;;;;;;;;;;;;;;;5049746;28;19994;-75
2024/02/08 12:49:09;;;;;;;;;;;;;;;;;;5051067;28;19929;-78
2024/02/08 12:51:36;;;;;;;;;;;;;;;;;;5051598;28;19964;-79
2024/02/08 12:54:07;;;;;;;;;;;;;;;;;;5053004;28;20074;-85
2024/02/08 12:56:36;;;;;;;;;;;;;;;;;;5052723;28;19975;-87
2024/02/08 12:59:03;;;;;;;;;;;;;;;;;;5053504;28;19929;-78
2024/02/08 13:01:34;;;;;;;;;;;;;;;;;;5052875;28;19929;-81
2024/02/08 13:04:01;;;;;;;;;;;;;;;;;;5045256;28;19929;-79
2024/02/08 13:06:28;;;;;;;;;;;;;;;;;;5052187;28;20036;-82
2024/02/08 13:08:55;;;;;;;;;;;;;;;;;;5051054;28;19929;-82
2024/02/08 13:11:22;;;;;;;;;;;;;;;;;;5049317;28;19943;-82
2024/02/08 13:13:49;;;;;;;;;;;;;;;;;;5051702;28;19925;-82
2024/02/08 13:16:16;;;;;;;;;;;;;;;;;;5046254;28;19929;-81
2024/02/08 13:18:48;;;;;;;;;;;;;;;;;;5053242;28;19986;-82
2024/02/08 13:21:15;;;;;;;;;;;;;;;;;;5053895;28;19950;-82
2024/02/08 13:23:42;;;;;;;;;;;;;;;;;;5054455;28;20023;-83
2024/02/08 13:26:10;;;;;;;;;;;;;;;;;;5053341;28;20719;-81
2024/02/08 13:28:37;;;;;;;;;;;;;;;;;;5047522;28;19971;-79
2024/02/08 13:31:05;;;;;;;;;;;;;;;;;;5052645;28;20024;-81
2024/02/08 13:33:32;;;;;;;;;;;;;;;;;;5049717;28;20400;-81
2024/02/08 13:36:08;;;;;;;;;;;;;;;;;;5052183;28;19924;-81
2024/02/08 13:38:38;;;;;;;;;;;;;;;;;;5047646;28;19929;-80
2024/02/08 13:41:09;;;;;;;;;;;;;;;;;;5050078;28;19936;-81
2024/02/08 13:43:39;;;;;;;;;;;;;;;;;;5051536;28;19929;-83
2024/02/08 13:46:06;;;;;;;;;;;;;;;;;;5049803;28;19924;-84
2024/02/08 13:48:33;;;;;;;;;;;;;;;;;;5047921;28;19929;-72
2024/02/08 13:51:06;;;;;;;;;;;;;;;;;;5047907;28;20421;-71
2024/02/08 13:53:35;;;;;;;;;;;;;;;;;;5049210;28;20299;-72
2024/02/08 13:56:05;;;;;;;;;;;;;;;;;;5050589;28;20530;-72
2024/02/08 13:58:36;;;;;;;;;;;;;;;;;;5047103;28;19929;-73
2024/02/08 14:01:03;;;;;;;;;;;;;;;;;;5046613;28;19929;-72
2024/02/08 14:03:30;;;;;;;;;;;;;;;;;;5047145;28;20349;-72
2024/02/08 14:05:59;;;;;;;;;;;;;;;;;;5050197;28;20229;-72
2024/02/08 14:08:27;;;;;;;;;;;;;;;;;;5049356;28;19937;-72
2024/02/08 14:10:54;;;;;;;;;;;;;;;;;;5049288;28;20373;-73
2024/02/08 14:13:28;;;;;;;;;;;;;;;;;;5050087;28;19928;-71
2024/02/08 14:16:00;;;;;;;;;;;;;;;;;;5050315;28;19969;-71
2024/02/08 14:18:31;;;;;;;;;;;;;;;;;;5051053;28;19928;-72
2024/02/08 14:20:58;;;;;;;;;;;;;;;;;;5049894;28;19928;-71
2024/02/08 14:23:32;;;;;;;;;;;;;;;;;;5049361;28;19928;-71
2024/02/08 14:26:09;;;;;;;;;;;;;;;;;;5050394;28;19924;-80
2024/02/08 14:28:38;;;;;;;;;;;;;;;;;;5050692;28;19982;-79
2024/02/08 14:31:08;;;;;;;;;;;;;;;;;;5047391;28;19929;-76
2024/02/08 14:33:35;;;;;;;;;;;;;;;;;;5050742;28;20691;-77
2024/02/08 14:36:06;;;;;;;;;;;;;;;;;;5044592;28;19928;-77
2024/02/08 14:38:34;;;;;;;;;;;;;;;;;;5040482;28;19933;-75
2024/02/08 14:41:02;;;;;;;;;;;;;;;;;;5045504;28;19933;-79
2024/02/08 14:43:32;;;;;;;;;;;;;;;;;;5044276;28;19925;-78
2024/02/08 14:45:59;;;;;;;;;;;;;;;;;;5046546;28;19933;-78
2024/02/08 14:48:28;;;;;;;;;;;;;;;;;;5036976;28;19935;-78
2024/02/08 14:50:58;;;;;;;;;;;;;;;;;;5048516;28;19935;-78
2024/02/08 14:53:25;;;;;;;;;;;;;;;;;;5049015;28;19929;-83
2024/02/08 14:55:55;;;;;;;;;;;;;;;;;;5048919;28;19928;-78
2024/02/08 14:58:32;;;;;;;;;;;;;;;;;;5049429;28;20356;-78
2024/02/08 15:01:07;;;;;;;;;;;;;;;;;;5046846;28;19933;-79
2024/02/08 15:03:38;;;;;;;;;;;;;;;;;;5039780;28;19932;-78
2024/02/08 15:06:05;;;;;;;;;;;;;;;;;;5043716;28;20003;-81
2024/02/08 15:08:45;;;;;;;;;;;;;;;;;;5049480;28;20399;-81
2024/02/08 15:11:38;;;;;;;;;;;;;;;;;;5047588;28;19932;-80
2024/02/08 15:14:06;;;;;;;;;;;;;;;;;;5046100;28;20019;-80
2024/02/08 15:16:33;;;;;;;;;;;;;;;;;;5050160;28;19928;-76
2024/02/08 15:19:00;;;;;;;;;;;;;;;;;;5041759;28;19976;-80
2024/02/08 15:21:34;;;;;;;;;;;;;;;;;;5049282;28;20013;-80
2024/02/08 15:26:49;;;;;;;;;;;;;;;;;;5044424;28;19929;-79
2024/02/08 15:29:30;;;;;;;;;;;;;;;;;;5045480;28;19933;-79
2024/02/08 15:32:01;;;;;;;;;;;;;;;;;;5042414;28;19976;-81
2024/02/08 15:34:40;;;;;;;;;;;;;;;;;;5042494;28;19929;-80
2024/02/08 15:37:20;;;;;;;;;;;;;;;;;;5040195;28;20014;-79
2024/02/08 15:42:35;;;;;;;;;;;;;;;;;;5033243;28;19971;-80
2024/02/08 15:45:10;;;;;;;;;;;;;;;;;;5043920;28;20448;-79
2024/02/08 15:47:39;;;;;;;;;;;;;;;;;;5039415;28;19966;-80
2024/02/08 15:50:15;;;;;;;;;;;;;;;;;;5045805;28;19929;-78
2024/02/08 15:52:42;;;;;;;;;;;;;;;;;;5042587;28;19936;-79
2024/02/08 15:55:14;;;;;;;;;;;;;;;;;;5041348;28;19933;-79
2024/02/08 15:57:45;;;;;;;;;;;;;;;;;;5053173;22;20288;-80
2024/02/08 16:00:33;;;;;;;;;;;;;;;;;;5022182;28;19940;-80
2024/02/08 16:03:02;;;;;;;;;;;;;;;;;;5026368;28;19929;-80
2024/02/08 16:05:30;;;;;;;;;;;;;;;;;;5023853;28;20387;-78
2024/02/08 16:08:05;;;;;;;;;;;;;;;;;;5021779;28;19929;-80
2024/02/08 16:10:33;;;;;;;;;;;;;;;;;;5033105;28;19931;-79
2024/02/08 16:13:05;;;;;;;;;;;;;;;;;;5028857;28;19929;-80
2024/02/08 16:15:49;;;;;;;;;;;;;;;;;;5030362;28;19972;-79
2024/02/08 16:18:24;;;;;;;;;;;;;;;;;;5029689;28;19926;-78
2024/02/08 16:20:54;;;;;;;;;;;;;;;;;;5026180;28;19933;-79
2024/02/08 16:23:23;;;;;;;;;;;;;;;;;;5027884;28;20047;-77
2024/02/08 16:26:05;;;;;;;;;;;;;;;;;;5028321;28;19975;-76
2024/02/08 16:28:37;;;;;;;;;;;;;;;;;;5030908;28;20440;-77
2024/02/08 16:31:24;;;;;;;;;;;;;;;;;;5015918;28;20308;-78
2024/02/08 16:33:55;;;;;;;;;;;;;;;;;;5021206;28;20027;-77
2024/02/08 16:36:33;;;;;;;;;;;;;;;;;;5021465;28;19929;-76
2024/02/08 16:39:06;;;;;;;;;;;;;;;;;;5025557;28;19933;-78
2024/02/08 16:41:34;;;;;;;;;;;;;;;;;;5030437;28;19952;-77
2024/02/08 16:44:03;;;;;;;;;;;;;;;;;;5022229;28;19929;-77
2024/02/08 16:46:36;;;;;;;;;;;;;;;;;;5030909;28;19929;-76
2024/02/08 16:49:06;;;;;;;;;;;;;;;;;;5024188;28;19936;-76
2024/02/08 16:51:38;;;;;;;;;;;;;;;;;;5017667;28;19929;-75
2024/02/08 16:54:17;;;;;;;;;;;;;;;;;;5020582;28;20348;-74
2024/02/08 16:56:44;;;;;;;;;;;;;;;;;;5019342;28;19948;-74
2024/02/08 16:59:15;;;;;;;;;;;;;;;;;;5023011;28;19972;-74
2024/02/08 17:01:52;;;;;;;;;;;;;;;;;;5026435;28;19929;-73
2024/02/08 17:04:28;;;;;;;;;;;;;;;;;;5028299;28;19929;-73
2024/02/08 17:07:02;;;;;;;;;;;;;;;;;;5026777;28;20015;-73
2024/02/08 17:09:34;;;;;;;;;;;;;;;;;;5027052;28;19929;-74
2024/02/08 17:12:04;;;;;;;;;;;;;;;;;;5028638;28;19935;-74
2024/02/08 17:14:36;;;;;;;;;;;;;;;;;;5018644;28;19930;-75
2024/02/08 17:17:13;;;;;;;;;;;;;;;;;;5019365;28;19928;-76
2024/02/08 17:19:57;;;;;;;;;;;;;;;;;;5028343;28;20300;-74
2024/02/08 17:22:40;;;;;;;;;;;;;;;;;;5024630;28;20411;-75
2024/02/08 17:25:24;;;;;;;;;;;;;;;;;;5022056;28;19960;-75
2024/02/08 17:27:56;;;;;;;;;;;;;;;;;;5022416;28;19936;-74
2024/02/08 17:30:37;;;;;;;;;;;;;;;;;;5027759;28;20392;-75
2024/02/08 17:33:11;;;;;;;;;;;;;;;;;;5026013;28;19929;-74
2024/02/08 17:35:40;;;;;;;;;;;;;;;;;;5031115;28;19936;-74
2024/02/08 17:38:07;;;;;;;;;;;;;;;;;;5028000;28;19935;-76
2024/02/08 17:40:35;;;;;;;;;;;;;;;;;;5026453;28;19964;-73
2024/02/08 17:43:17;;;;;;;;;;;;;;;;;;5029705;28;19929;-75
2024/02/08 17:45:55;;;;;;;;;;;;;;;;;;5030711;28;19935;-73
2024/02/08 17:48:27;;;;;;;;;;;;;;;;;;5030695;28;20600;-74
2024/02/08 17:50:58;;;;;;;;;;;;;;;;;;5031067;28;19945;-74
2024/02/08 17:53:25;;;;;;;;;;;;;;;;;;5031814;28;20303;-73
2024/02/08 17:55:53;;;;;;;;;;;;;;;;;;5026613;28;19983;-75
2024/02/08 17:58:22;;;;;;;;;;;;;;;;;;5026162;28;19930;-73
2024/02/08 18:00:49;;;;;;;;;;;;;;;;;;5025292;28;19933;-74
2024/02/08 18:03:16;;;;;;;;;;;;;;;;;;5028361;28;20565;-74
2024/02/08 18:05:47;;;;;;;;;;;;;;;;;;5034273;28;20016;-72
2024/02/08 18:08:16;;;;;;;;;;;;;;;;;;5024347;28;19936;-73
2024/02/08 18:10:46;;;;;;;;;;;;;;;;;;5030798;28;20114;-74
2024/02/08 18:13:13;;;;;;;;;;;;;;;;;;5026961;28;19982;-73
2024/02/08 18:15:43;;;;;;;;;;;;;;;;;;5027385;28;19960;-72
2024/02/08 18:18:10;;;;;;;;;;;;;;;;;;5030031;28;20016;-74
2024/02/08 18:20:39;;;;;;;;;;;;;;;;;;5029157;28;19925;-72
2024/02/08 18:23:06;;;;;;;;;;;;;;;;;;5026493;28;19933;-74
2024/02/08 18:25:33;;;;;;;;;;;;;;;;;;5022858;28;20410;-72
2024/02/08 18:28:00;;;;;;;;;;;;;;;;;;5027701;28;19933;-72
2024/02/08 18:30:37;;;;;;;;;;;;;;;;;;5027814;28;19932;-74
2024/02/08 18:33:08;;;;;;;;;;;;;;;;;;5027732;28;19925;-73
2024/02/08 18:35:38;;;;;;;;;;;;;;;;;;5026983;28;19980;-72
2024/02/08 18:38:07;;;;;;;;;;;;;;;;;;5027998;28;19937;-72
2024/02/08 18:40:35;;;;;;;;;;;;;;;;;;5033927;28;19999;-73
2024/02/08 18:43:03;;;;;;;;;;;;;;;;;;5026935;28;19940;-73
2024/02/08 18:45:34;;;;;;;;;;;;;;;;;;5028197;28;19939;-73
2024/02/08 18:48:03;;;;;;;;;;;;;;;;;;5028324;28;19929;-73
2024/02/08 18:50:31;;;;;;;;;;;;;;;;;;5028133;28;19966;-73
2024/02/08 18:52:58;;;;;;;;;;;;;;;;;;5030134;28;19929;-71